createdAt,value
2018-05-14T00:00:37.037Z,50.83
2018-05-14T00:03:03.317Z,52.93
2018-05-14T00:05:29.593Z,56.50
2018-05-14T00:07:55.881Z,57.75
2018-05-14T00:10:22.175Z,56.13
2018-05-14T00:12:49.174Z,60.33
2018-05-14T00:15:15.458Z,59.97
2018-05-14T00:17:42.463Z,59.77
2018-05-14T00:20:08.732Z,60.47
2018-05-14T00:22:35.773Z,60.63
2018-05-14T00:25:02.080Z,59.63
2018-05-14T00:27:28.349Z,64.97
2018-05-14T00:29:54.647Z,70.53
2018-05-14T00:32:20.915Z,66.30
2018-05-14T00:34:47.197Z,65.83
2018-05-14T00:37:13.462Z,68.00
2018-05-14T00:39:40.462Z,69.30
2018-05-14T00:42:06.727Z,72.40
2018-05-14T00:44:32.995Z,71.33
2018-05-14T00:46:59.274Z,72.00
2018-05-14T00:49:25.639Z,71.87
2018-05-14T00:51:51.842Z,69.37
2018-05-14T00:54:18.870Z,73.50
2018-05-14T00:56:45.139Z,70.23
2018-05-14T00:59:12.156Z,69.07
2018-05-14T01:01:38.469Z,67.10
2018-05-14T01:04:04.717Z,70.97
2018-05-14T01:06:31.118Z,68.87
2018-05-14T01:08:57.292Z,75.90
2018-05-14T01:11:24.321Z,70.20
2018-05-14T01:13:50.585Z,73.13
2018-05-14T01:16:17.618Z,68.90
2018-05-14T01:18:43.923Z,74.70
2018-05-14T01:21:10.186Z,71.07
2018-05-14T01:23:37.220Z,69.53
2018-05-14T01:26:04.225Z,70.80
2018-05-14T01:28:30.503Z,69.67
2018-05-14T01:30:56.746Z,72.20
2018-05-14T01:33:23.781Z,74.30
2018-05-14T01:35:50.034Z,68.00
2018-05-14T01:38:17.055Z,63.43
2018-05-14T01:40:43.310Z,65.97
2018-05-14T01:43:09.603Z,68.17
2018-05-14T01:45:36.646Z,64.80
2018-05-14T01:48:02.924Z,64.93
2018-05-14T01:50:29.207Z,65.20
2018-05-14T01:52:55.474Z,66.20
2018-05-14T01:55:22.501Z,65.73
2018-05-14T01:57:48.750Z,66.90
2018-05-14T02:00:15.789Z,61.57
2018-05-14T02:02:42.802Z,62.23
2018-05-14T02:05:09.082Z,62.03
2018-05-14T02:07:35.351Z,60.90
2018-05-14T02:10:01.635Z,62.43
2018-05-14T02:12:28.633Z,61.87
2018-05-14T02:14:54.906Z,62.70
2018-05-14T02:17:21.914Z,59.13
2018-05-14T02:19:48.233Z,60.37
2018-05-14T02:22:14.554Z,57.97
2018-05-14T02:24:40.834Z,56.27
2018-05-14T02:27:07.858Z,56.85
2018-05-14T02:29:34.118Z,54.83
2018-05-14T02:32:00.402Z,53.67
2018-05-14T02:34:26.690Z,54.73
2018-05-14T02:36:53.035Z,51.37
2018-05-14T02:39:19.313Z,51.60
2018-05-14T02:41:45.576Z,53.35
2018-05-14T02:44:12.609Z,52.60
2018-05-14T02:46:39.648Z,48.22
2018-05-14T02:49:05.917Z,48.80
2018-05-14T02:51:32.210Z,51.60
2018-05-14T02:53:59.218Z,49.28
2018-05-14T02:56:25.487Z,50.20
2018-05-14T02:58:52.531Z,51.83
2018-05-14T03:01:19.554Z,51.53
2018-05-14T03:03:45.830Z,50.40
2018-05-14T03:06:12.882Z,50.00
2018-05-14T03:08:39.894Z,52.27
2018-05-14T03:11:06.163Z,53.53
2018-05-14T03:13:32.459Z,50.22
2018-05-14T03:15:58.715Z,48.10
2018-05-14T03:18:25.769Z,49.00
2018-05-14T03:20:52.345Z,49.07
2018-05-14T03:23:18.617Z,49.40
2018-05-14T03:25:45.631Z,52.70
2018-05-14T03:28:11.909Z,50.05
2018-05-14T03:30:38.898Z,48.23
2018-05-14T03:33:05.186Z,46.07
2018-05-14T03:35:32.212Z,50.50
2018-05-14T03:37:59.229Z,49.43
2018-05-14T03:40:25.486Z,52.00
2018-05-14T03:42:51.753Z,48.47
2018-05-14T03:45:18.045Z,46.97
2018-05-14T03:47:44.305Z,47.87
2018-05-14T03:50:10.697Z,45.53
2018-05-14T03:52:37.056Z,46.47
2018-05-14T03:55:04.134Z,47.60
2018-05-14T03:57:30.491Z,46.80
2018-05-14T04:00:09.133Z,44.77
2018-05-14T04:02:47.814Z,48.17
2018-05-14T04:05:17.913Z,50.10
2018-05-14T04:07:45.058Z,46.53
2018-05-14T04:10:11.340Z,45.73
2018-05-14T04:12:37.626Z,50.12
2018-05-14T04:15:03.920Z,45.53
2018-05-14T04:17:30.969Z,49.00
2018-05-14T04:19:57.234Z,48.33
2018-05-14T04:22:23.536Z,49.37
2018-05-14T04:24:50.598Z,44.73
2018-05-14T04:27:17.605Z,48.27
2018-05-14T04:29:43.909Z,46.50
2018-05-14T04:32:10.294Z,48.87
2018-05-14T04:34:37.314Z,48.67
2018-05-14T04:37:03.596Z,45.87
2018-05-14T04:39:29.902Z,48.23
2018-05-14T04:41:56.911Z,45.43
2018-05-14T04:44:23.178Z,44.70
2018-05-14T04:46:49.513Z,49.13
2018-05-14T04:49:16.526Z,48.70
2018-05-14T04:51:42.798Z,48.67
2018-05-14T04:54:09.834Z,46.83
2018-05-14T04:56:36.841Z,48.10
2018-05-14T04:59:03.130Z,48.00
2018-05-14T05:01:29.462Z,44.03
2018-05-14T05:03:55.743Z,47.03
2018-05-14T05:06:22.043Z,47.17
2018-05-14T05:08:48.321Z,50.40
2018-05-14T05:11:14.622Z,49.03
2018-05-14T05:13:40.989Z,48.20
2018-05-14T05:16:08.113Z,47.57
2018-05-14T05:18:34.415Z,47.90
2018-05-14T05:21:00.738Z,64.83
2018-05-14T05:23:27.043Z,50.40
2018-05-14T05:25:54.054Z,49.20
2018-05-14T05:28:20.386Z,48.77
2018-05-14T05:30:46.697Z,48.23
2018-05-14T05:33:13.002Z,47.60
2018-05-14T05:35:39.326Z,48.40
2018-05-14T05:38:05.633Z,51.10
2018-05-14T05:40:32.646Z,47.47
2018-05-14T05:42:58.987Z,49.90
2018-05-14T05:45:25.446Z,47.30
2018-05-14T05:47:52.374Z,48.03
2018-05-14T05:50:18.648Z,50.53
2018-05-14T05:52:44.979Z,47.50
2018-05-14T05:55:11.270Z,48.87
2018-05-14T05:57:37.555Z,48.63
2018-05-14T06:00:03.954Z,50.07
2018-05-14T06:02:30.984Z,51.27
2018-05-14T06:04:58.018Z,47.30
2018-05-14T06:07:24.471Z,46.70
2018-05-14T06:09:51.502Z,46.47
2018-05-14T06:12:18.561Z,48.40
2018-05-14T06:14:44.850Z,49.13
2018-05-14T06:17:11.120Z,46.83
2018-05-14T06:19:37.373Z,50.47
2018-05-14T06:22:04.409Z,50.33
2018-05-14T06:24:31.432Z,46.47
2018-05-14T06:26:57.718Z,43.57
2018-05-14T06:29:24.023Z,49.50
2018-05-14T06:31:50.286Z,48.93
2018-05-14T06:34:16.933Z,48.23
2018-05-14T06:36:43.069Z,50.93
2018-05-14T06:39:09.339Z,45.93
2018-05-14T06:41:36.343Z,45.20
2018-05-14T06:44:02.658Z,44.90
2018-05-14T06:46:28.972Z,43.73
2018-05-14T06:48:55.446Z,49.37
2018-05-14T06:51:21.754Z,42.53
2018-05-14T06:53:48.062Z,42.10
2018-05-14T06:56:14.334Z,43.77
2018-05-14T06:58:40.637Z,43.77
2018-05-14T07:01:06.935Z,43.10
2018-05-14T07:03:33.974Z,44.77
2018-05-14T07:06:01.019Z,43.13
2018-05-14T07:08:27.297Z,45.70
2018-05-14T07:10:53.636Z,46.43
2018-05-14T07:13:19.918Z,42.67
2018-05-14T07:15:46.926Z,43.37
2018-05-14T07:18:13.239Z,44.00
2018-05-14T07:20:39.582Z,44.80
2018-05-14T07:23:05.874Z,43.50
2018-05-14T07:25:32.145Z,44.40
2018-05-14T07:27:58.423Z,44.90
2018-05-14T07:30:25.439Z,44.47
2018-05-14T07:32:51.730Z,45.53
2018-05-14T07:35:18.023Z,42.90
2018-05-14T07:37:45.025Z,41.60
2018-05-14T07:40:11.326Z,43.10
2018-05-14T07:42:38.471Z,41.13
2018-05-14T07:45:04.769Z,41.00
2018-05-14T07:47:31.052Z,40.97
2018-05-14T07:49:57.382Z,40.80
2018-05-14T07:52:23.645Z,38.30
2018-05-14T07:54:49.989Z,40.80
2018-05-14T07:57:16.233Z,39.70
2018-05-14T07:59:42.511Z,41.77
2018-05-14T08:02:08.776Z,37.80
2018-05-14T08:04:35.101Z,38.17
2018-05-14T08:07:01.358Z,39.20
2018-05-14T08:09:28.353Z,38.00
2018-05-14T08:11:54.633Z,39.97
2018-05-14T08:14:21.633Z,37.87
2018-05-14T08:16:47.901Z,37.23
2018-05-14T08:19:14.193Z,39.13
2018-05-14T08:21:40.470Z,38.23
2018-05-14T08:24:07.498Z,42.23
2018-05-14T08:26:33.806Z,38.17
2018-05-14T08:29:00.070Z,32.93
2018-05-14T08:31:26.405Z,34.83
2018-05-14T08:33:52.642Z,33.73
2018-05-14T08:36:19.671Z,37.90
2018-05-14T08:38:45.923Z,36.47
2018-05-14T08:41:12.951Z,40.00
2018-05-14T08:43:39.295Z,39.70
2018-05-14T08:46:05.507Z,38.33
2018-05-14T08:48:31.833Z,40.67
2018-05-14T08:50:58.134Z,41.37
2018-05-14T08:53:25.134Z,40.83
2018-05-14T08:55:52.181Z,39.77
2018-05-14T08:58:19.196Z,39.57
2018-05-14T09:00:45.547Z,41.13
2018-05-14T09:03:11.778Z,39.40
2018-05-14T09:05:38.807Z,41.67
2018-05-14T09:08:05.069Z,40.70
2018-05-14T09:10:32.106Z,38.87
2018-05-14T09:12:59.156Z,39.70
2018-05-14T09:15:26.170Z,41.37
2018-05-14T09:17:52.445Z,39.20
2018-05-14T09:20:18.765Z,41.50
2018-05-14T09:22:45.834Z,38.67
2018-05-14T09:25:12.164Z,37.83
2018-05-14T09:27:38.458Z,39.30
2018-05-14T09:30:05.512Z,35.63
2018-05-14T09:32:31.794Z,37.50
2018-05-14T09:34:58.079Z,33.17
2018-05-14T09:37:25.099Z,33.60
2018-05-14T09:39:51.397Z,30.97
2018-05-14T09:42:17.657Z,34.70
2018-05-14T09:44:43.936Z,33.50
2018-05-14T09:47:10.257Z,33.73
2018-05-14T09:49:37.266Z,31.73
2018-05-14T09:52:03.547Z,35.07
2018-05-14T09:54:29.870Z,33.67
2018-05-14T09:56:56.861Z,33.30
2018-05-14T09:59:23.133Z,30.03
2018-05-14T10:01:50.197Z,31.67
2018-05-14T10:04:16.492Z,30.50
2018-05-14T10:06:43.510Z,31.20
2018-05-14T10:09:09.798Z,31.80
2018-05-14T10:11:36.835Z,30.40
2018-05-14T10:14:03.884Z,32.93
2018-05-14T10:16:30.961Z,32.50
2018-05-14T10:18:57.224Z,31.90
2018-05-14T10:21:23.497Z,30.27
2018-05-14T10:23:49.807Z,35.10
2018-05-14T10:26:16.105Z,31.97
2018-05-14T10:28:42.391Z,33.67
2018-05-14T10:31:09.422Z,31.87
2018-05-14T10:33:35.671Z,30.00
2018-05-14T10:36:02.704Z,30.90
2018-05-14T10:38:28.989Z,35.00
2018-05-14T10:40:55.279Z,32.50
2018-05-14T10:43:21.597Z,32.43
2018-05-14T10:45:48.641Z,33.03
2018-05-14T10:48:15.680Z,31.20
2018-05-14T10:50:41.934Z,32.33
2018-05-14T10:53:08.977Z,34.27
2018-05-14T10:55:36.057Z,30.47
2018-05-14T10:58:02.347Z,31.50
2018-05-14T11:00:29.421Z,30.87
2018-05-14T11:02:55.727Z,31.17
2018-05-14T11:05:21.966Z,30.90
2018-05-14T11:07:49.463Z,31.43
2018-05-14T11:10:15.724Z,33.37
2018-05-14T11:12:42.026Z,32.63
2018-05-14T11:15:08.374Z,35.63
2018-05-14T11:17:34.649Z,30.37
2018-05-14T11:20:01.074Z,31.10
2018-05-14T11:22:27.820Z,30.33
2018-05-14T11:24:54.963Z,34.17
2018-05-14T11:27:22.080Z,31.60
2018-05-14T11:29:48.326Z,31.40
2018-05-14T11:32:14.598Z,29.23
2018-05-14T11:34:41.204Z,31.23
2018-05-14T11:37:08.227Z,30.00
2018-05-14T11:39:34.551Z,29.53
2018-05-14T11:42:00.829Z,30.20
2018-05-14T11:44:27.152Z,29.87
2018-05-14T11:46:53.439Z,31.30
2018-05-14T11:49:19.721Z,30.03
2018-05-14T11:51:46.003Z,27.43
2018-05-14T11:54:12.270Z,33.53
2018-05-14T11:56:38.569Z,26.93
2018-05-14T11:59:04.859Z,27.67
2018-05-14T12:01:31.181Z,29.80
2018-05-14T12:03:57.434Z,28.57
2018-05-14T12:06:23.746Z,24.80
2018-05-14T12:08:50.011Z,25.73
2018-05-14T12:11:16.295Z,27.60
2018-05-14T12:13:42.591Z,27.27
2018-05-14T12:16:08.967Z,24.63
2018-05-14T12:18:35.124Z,24.00
2018-05-14T12:21:01.401Z,24.70
2018-05-14T12:23:28.402Z,25.20
2018-05-14T12:25:54.688Z,23.97
2018-05-14T12:28:20.983Z,21.80
2018-05-14T12:30:47.276Z,19.50
2018-05-14T12:33:13.554Z,21.43
2018-05-14T12:35:39.853Z,20.07
2018-05-14T12:38:06.146Z,21.23
2018-05-14T12:40:32.465Z,22.70
2018-05-14T12:42:58.767Z,22.07
2018-05-14T12:45:25.060Z,19.13
2018-05-14T12:47:51.381Z,19.67
2018-05-14T12:50:17.659Z,19.87
2018-05-14T12:52:44.670Z,19.50
2018-05-14T12:55:10.932Z,18.57
2018-05-14T12:57:37.989Z,18.17
2018-05-14T13:00:05.049Z,18.03
2018-05-14T13:02:32.043Z,17.77
2018-05-14T13:04:58.361Z,15.10
2018-05-14T13:07:24.680Z,14.50
2018-05-14T13:09:51.014Z,13.47
2018-05-14T13:12:17.269Z,13.20
2018-05-14T13:14:43.542Z,13.13
2018-05-14T13:17:09.839Z,13.23
2018-05-14T13:19:36.130Z,13.10
2018-05-14T13:22:02.474Z,13.50
2018-05-14T13:24:28.758Z,13.33
2018-05-14T13:26:55.365Z,14.20
2018-05-14T13:29:21.711Z,12.80
2018-05-14T13:31:47.975Z,12.80
2018-05-14T13:34:14.285Z,11.77
2018-05-14T13:36:40.540Z,12.27
2018-05-14T13:39:06.826Z,11.47
2018-05-14T13:41:33.151Z,10.20
2018-05-14T13:43:59.429Z,11.83
2018-05-14T13:46:25.711Z,10.50
2018-05-14T13:48:52.007Z,8.80
2018-05-14T13:51:18.285Z,10.50
2018-05-14T13:53:44.546Z,10.83
2018-05-14T13:56:10.840Z,8.47
2018-05-14T13:58:37.209Z,9.00
2018-05-14T14:01:03.525Z,8.73
2018-05-14T14:03:30.558Z,9.67
2018-05-14T14:05:56.817Z,9.07
2018-05-14T14:08:23.086Z,7.80
2018-05-14T14:10:49.358Z,7.27
2018-05-14T14:13:15.639Z,7.03
2018-05-14T14:15:41.893Z,7.03
2018-05-14T14:18:08.221Z,7.03
2018-05-14T14:20:34.483Z,8.07
2018-05-14T14:23:01.512Z,8.37
2018-05-14T14:25:27.796Z,6.67
2018-05-14T14:27:54.086Z,6.23
2018-05-14T14:30:21.116Z,6.77
2018-05-14T14:32:47.406Z,6.40
2018-05-14T14:35:13.664Z,8.13
2018-05-14T14:37:39.921Z,9.20
2018-05-14T14:40:06.253Z,6.63
2018-05-14T14:42:33.258Z,6.00
2018-05-14T14:44:59.518Z,6.10
2018-05-14T14:47:25.811Z,6.10
2018-05-14T14:49:52.073Z,7.00
2018-05-14T14:52:18.353Z,6.40
2018-05-14T14:54:44.640Z,6.27
2018-05-14T14:57:10.881Z,5.97
2018-05-14T14:59:37.889Z,6.13
2018-05-14T15:02:04.209Z,6.03
2018-05-14T15:04:30.474Z,12.10
2018-05-14T15:06:57.538Z,11.50
2018-05-14T15:09:23.770Z,6.03
2018-05-14T15:11:50.783Z,6.17
2018-05-14T15:14:17.030Z,6.37
2018-05-14T15:16:43.356Z,6.10
2018-05-14T15:19:10.408Z,5.70
2018-05-14T15:21:36.663Z,7.77
2018-05-14T15:24:02.994Z,6.40
2018-05-14T15:26:29.265Z,5.10
2018-05-14T15:28:55.521Z,5.10
2018-05-14T15:31:22.078Z,5.07
2018-05-14T15:33:49.128Z,4.60
2018-05-14T15:36:15.417Z,5.10
2018-05-14T15:38:41.730Z,5.47
2018-05-14T15:41:08.001Z,5.50
2018-05-14T15:43:34.257Z,4.80
2018-05-14T15:46:00.569Z,5.23
2018-05-14T15:48:27.602Z,4.83
2018-05-14T15:50:53.843Z,5.13
2018-05-14T15:53:20.126Z,4.33
2018-05-14T15:55:46.393Z,4.80
2018-05-14T15:58:12.712Z,4.57
2018-05-14T16:00:39.005Z,4.60
2018-05-14T16:03:05.287Z,5.60
2018-05-14T16:05:31.535Z,5.60
2018-05-14T16:07:57.833Z,5.57
2018-05-14T16:10:24.073Z,6.37
2018-05-14T16:12:50.354Z,4.57
2018-05-14T16:15:16.641Z,4.47
2018-05-14T16:17:42.934Z,7.07
2018-05-14T16:20:09.213Z,5.57
2018-05-14T16:22:36.570Z,5.40
2018-05-14T16:25:03.601Z,4.73
2018-05-14T16:27:30.618Z,5.10
2018-05-14T16:29:56.902Z,5.30
2018-05-14T16:32:23.200Z,5.40
2018-05-14T16:34:49.519Z,5.43
2018-05-14T16:37:15.829Z,5.83
2018-05-14T16:39:42.084Z,4.60
2018-05-14T16:42:08.356Z,5.33
2018-05-14T16:44:34.690Z,7.33
2018-05-14T16:47:00.963Z,6.73
2018-05-14T16:49:27.217Z,7.17
2018-05-14T16:51:54.269Z,6.37
2018-05-14T16:54:21.278Z,5.80
2018-05-14T16:56:47.541Z,5.60
2018-05-14T16:59:13.849Z,5.13
2018-05-14T17:01:40.143Z,6.07
2018-05-14T17:04:06.417Z,4.87
2018-05-14T17:06:32.718Z,4.93
2018-05-14T17:08:58.973Z,5.50
2018-05-14T17:11:25.217Z,6.13
2018-05-14T17:13:51.513Z,5.70
2018-05-14T17:16:19.219Z,5.63
2018-05-14T17:18:45.746Z,6.77
2018-05-14T17:21:12.056Z,5.60
2018-05-14T17:23:38.306Z,6.30
2018-05-14T17:26:04.569Z,5.70
2018-05-14T17:28:30.857Z,6.27
2018-05-14T17:30:57.113Z,5.30
2018-05-14T17:33:24.182Z,5.70
2018-05-14T17:35:50.805Z,5.53
2018-05-14T17:38:17.800Z,6.73
2018-05-14T17:40:44.066Z,5.40
2018-05-14T17:43:11.095Z,5.90
2018-05-14T17:45:37.365Z,6.97
2018-05-14T17:48:03.642Z,6.80
2018-05-14T17:50:29.934Z,5.90
2018-05-14T17:52:56.220Z,6.83
2018-05-14T17:55:22.485Z,6.70
2018-05-14T17:57:48.819Z,5.17
2018-05-14T18:00:15.116Z,9.00
2018-05-14T18:02:41.490Z,6.43
2018-05-14T18:05:07.866Z,8.17
2018-05-14T18:07:34.101Z,6.57
2018-05-14T18:10:00.390Z,8.20
2018-05-14T18:12:26.702Z,6.13
2018-05-14T18:14:52.985Z,6.10
2018-05-14T18:17:19.263Z,5.13
2018-05-14T18:19:51.670Z,10.80
2018-05-14T18:22:23.987Z,7.57
2018-05-14T18:24:51.106Z,6.40
2018-05-14T18:27:23.473Z,8.30
2018-05-14T18:29:53.725Z,7.87
2018-05-14T18:32:20.767Z,7.40
2018-05-14T18:34:47.111Z,6.70
2018-05-14T18:37:14.205Z,7.90
2018-05-14T18:39:40.467Z,7.97
2018-05-14T18:42:06.804Z,8.70
2018-05-14T18:44:33.151Z,11.40
2018-05-14T18:47:00.237Z,8.93
2018-05-14T18:49:26.525Z,7.17
2018-05-14T18:51:54.894Z,8.53
2018-05-14T18:54:21.130Z,7.20
2018-05-14T18:56:48.163Z,7.53
2018-05-14T18:59:14.484Z,7.40
2018-05-14T19:01:40.770Z,6.90
2018-05-14T19:04:07.037Z,6.57
2018-05-14T19:06:33.322Z,5.83
2018-05-14T19:08:59.699Z,6.40
2018-05-14T19:11:33.022Z,6.83
2018-05-14T19:14:00.047Z,8.57
2018-05-14T19:16:32.350Z,7.30
2018-05-14T19:18:59.378Z,8.10
2018-05-14T19:21:25.708Z,6.00
2018-05-14T19:23:52.071Z,8.63
2018-05-14T19:26:18.409Z,7.70
2018-05-14T19:28:51.546Z,8.93
2018-05-14T19:31:18.659Z,7.20
2018-05-14T19:33:51.077Z,6.83
